Time;durP1;ratioP1;P1;durP2;ratioP2;P2;SDS_P1;SDS_P2;PMS_P1;PMS_P2;Temp;Humidity;BMP_temperature;BMP_pressure;BME280_temperature;BME280_humidity;BME280_pressure;Samples;Min_cycle;Max_cycle;Signal;HPM_P1;HPM_P2
2022/11/15 00:00:27;;;;;;;3.33;2.13;;;13.10;99.90;;;;;;5093694;28;20259;-63
2022/11/15 00:02:54;;;;;;;3.30;1.87;;;13.20;99.90;;;;;;5094164;28;20204;-63
2022/11/15 00:05:21;;;;;;;2.20;1.80;;;13.20;99.90;;;;;;5093924;28;20207;-63
2022/11/15 00:07:48;;;;;;;3.00;1.87;;;13.30;99.90;;;;;;5093245;28;20203;-62
2022/11/15 00:10:15;;;;;;;2.50;1.80;;;13.40;99.90;;;;;;5093670;28;20228;-62
2022/11/15 00:12:43;;;;;;;2.90;1.70;;;13.50;99.90;;;;;;5093626;28;20208;-62
2022/11/15 00:15:10;;;;;;;5.00;2.03;;;13.50;99.90;;;;;;5093478;28;20691;-62
2022/11/15 00:17:36;;;;;;;3.27;2.00;;;13.50;99.90;;;;;;5092868;28;20641;-62
2022/11/15 00:20:04;;;;;;;3.30;1.93;;;13.40;99.90;;;;;;5093540;28;20224;-62
2022/11/15 00:22:33;;;;;;;3.20;1.70;;;13.30;99.90;;;;;;5093636;28;20200;-62
2022/11/15 00:24:59;;;;;;;3.70;1.93;;;13.30;99.90;;;;;;5092882;28;20555;-62
2022/11/15 00:27:27;;;;;;;3.70;1.50;;;13.30;99.90;;;;;;5092701;28;20208;-62
2022/11/15 00:29:55;;;;;;;1.90;1.60;;;13.30;99.90;;;;;;5093555;28;20232;-62
2022/11/15 00:32:22;;;;;;;2.90;1.60;;;13.30;99.90;;;;;;5093322;28;20683;-62
2022/11/15 00:34:48;;;;;;;2.23;1.70;;;13.50;99.90;;;;;;5093517;28;20212;-63
2022/11/15 00:37:15;;;;;;;4.93;1.70;;;13.50;99.90;;;;;;5092422;28;20594;-64
2022/11/15 00:39:42;;;;;;;2.93;2.03;;;13.60;99.90;;;;;;5093006;28;20243;-62
2022/11/15 00:42:08;;;;;;;3.70;1.60;;;13.60;99.90;;;;;;5092879;28;20668;-62
2022/11/15 00:44:35;;;;;;;3.27;2.00;;;13.60;99.90;;;;;;5093298;28;20204;-63
2022/11/15 00:47:03;;;;;;;2.97;1.87;;;13.60;99.90;;;;;;5092162;28;20660;-64
2022/11/15 00:49:30;;;;;;;3.53;1.80;;;13.50;99.90;;;;;;5093255;28;20231;-62
2022/11/15 00:51:56;;;;;;;2.77;1.87;;;13.50;99.90;;;;;;5092995;28;20204;-63
2022/11/15 00:54:23;;;;;;;3.93;1.63;;;13.40;99.90;;;;;;5092862;28;20208;-63
2022/11/15 00:56:50;;;;;;;3.27;1.90;;;13.30;99.90;;;;;;5092031;28;20726;-63
2022/11/15 00:59:16;;;;;;;2.83;1.80;;;13.20;99.90;;;;;;5092953;28;20220;-63
2022/11/15 01:01:43;;;;;;;2.87;1.67;;;13.20;99.90;;;;;;5092903;28;20216;-63
2022/11/15 01:04:11;;;;;;;3.97;1.90;;;13.20;99.90;;;;;;5092742;28;20208;-66
2022/11/15 01:06:38;;;;;;;4.83;1.73;;;13.10;99.90;;;;;;5092108;28;20203;-63
2022/11/15 01:09:05;;;;;;;2.40;1.57;;;13.20;99.90;;;;;;5092520;28;20220;-63
2022/11/15 01:11:31;;;;;;;2.27;1.30;;;13.20;99.90;;;;;;5092908;28;20215;-63
2022/11/15 01:13:58;;;;;;;5.07;1.87;;;13.20;99.90;;;;;;5092783;28;20286;-63
2022/11/15 01:16:25;;;;;;;3.10;1.73;;;13.10;99.90;;;;;;5092087;28;20591;-63
2022/11/15 01:18:51;;;;;;;3.07;1.40;;;13.10;99.90;;;;;;5092422;28;20223;-63
2022/11/15 01:21:20;;;;;;;3.93;1.67;;;12.90;99.90;;;;;;5092582;28;20212;-63
2022/11/15 01:23:47;;;;;;;3.10;1.80;;;12.70;99.90;;;;;;5092403;28;20204;-62
2022/11/15 01:26:15;;;;;;;2.27;1.73;;;12.60;99.90;;;;;;5091645;28;20672;-63
2022/11/15 01:28:43;;;;;;;3.30;1.80;;;12.40;99.90;;;;;;5092559;28;20227;-63
2022/11/15 01:31:13;;;;;;;3.07;1.93;;;12.20;99.90;;;;;;5092418;28;20204;-63
2022/11/15 01:33:40;;;;;;;2.60;1.70;;;12.10;99.90;;;;;;5092348;28;20204;-63
2022/11/15 01:36:08;;;;;;;2.43;1.70;;;12.10;99.90;;;;;;5092143;28;20564;-63
2022/11/15 01:38:36;;;;;;;2.77;1.63;;;12.00;99.90;;;;;;5114163;22;20232;-61
2022/11/15 01:41:04;;;;;;;2.97;1.60;;;11.80;99.90;;;;;;5064184;28;20219;-58
2022/11/15 01:43:33;;;;;;;3.47;1.50;;;11.60;99.90;;;;;;5072563;28;20204;-58
2022/11/15 01:46:05;;;;;;;3.23;1.70;;;11.50;99.90;;;;;;5072559;28;20211;-58
2022/11/15 01:48:34;;;;;;;3.30;1.60;;;11.40;99.90;;;;;;5072352;28;20204;-58
2022/11/15 01:51:03;;;;;;;3.23;1.73;;;11.30;99.90;;;;;;5072301;28;20251;-58
2022/11/15 01:53:32;;;;;;;2.67;1.50;;;11.40;99.90;;;;;;5072753;28;20205;-58
2022/11/15 01:56:04;;;;;;;4.10;1.73;;;11.40;99.90;;;;;;5072585;28;20204;-58
2022/11/15 01:58:32;;;;;;;3.30;1.97;;;11.40;99.90;;;;;;5072068;28;20256;-58
2022/11/15 02:00:59;;;;;;;2.80;1.50;;;11.50;99.90;;;;;;5072617;28;20656;-58
2022/11/15 02:03:35;;;;;;;2.40;1.50;;;11.40;99.90;;;;;;5072435;28;20338;-58
2022/11/15 02:06:04;;;;;;;3.40;2.30;;;11.30;99.90;;;;;;5072521;28;20660;-58
2022/11/15 02:08:31;;;;;;;4.63;2.03;;;11.30;99.90;;;;;;5072098;28;20223;-58
2022/11/15 02:10:58;;;;;;;3.57;1.80;;;11.40;99.90;;;;;;5072459;28;20213;-58
2022/11/15 02:13:27;;;;;;;3.57;1.80;;;11.30;99.90;;;;;;5072379;28;20213;-58
2022/11/15 02:16:05;;;;;;;4.87;1.90;;;11.20;99.90;;;;;;5072194;28;20212;-58
2022/11/15 02:18:36;;;;;;;2.97;1.80;;;11.30;99.90;;;;;;5072194;28;20228;-58
2022/11/15 02:21:12;;;;;;;4.17;1.70;;;11.30;99.90;;;;;;5072312;28;20204;-58
2022/11/15 02:24:08;;;;;;;2.27;1.60;;;11.20;99.90;;;;;;5072356;28;20295;-59
2022/11/15 02:27:17;;;;;;;2.67;2.03;;;11.10;99.90;;;;;;5072159;28;20212;-58
2022/11/15 02:30:05;;;;;;;3.23;1.73;;;11.20;99.90;;;;;;5015250;28;20231;-58
2022/11/15 02:32:40;;;;;;;4.63;2.70;;;11.20;99.90;;;;;;5071980;28;20209;-58
2022/11/15 02:35:17;;;;;;;4.47;2.50;;;11.20;99.90;;;;;;5072232;28;20295;-59
2022/11/15 02:37:51;;;;;;;3.53;2.40;;;11.20;99.90;;;;;;5071710;28;20224;-59
2022/11/15 02:40:27;;;;;;;3.63;2.27;;;11.20;99.90;;;;;;5071746;28;20237;-59
2022/11/15 02:45:47;;;;;;;4.97;2.17;;;11.20;99.90;;;;;;5071950;28;20199;-59
2022/11/15 02:48:16;;;;;;;2.33;1.80;;;11.30;99.90;;;;;;5071845;28;20201;-59
2022/11/15 02:50:44;;;;;;;2.87;1.70;;;11.30;99.90;;;;;;5075729;28;20255;-59
2022/11/15 02:53:10;;;;;;;4.17;1.77;;;11.20;99.90;;;;;;5075435;28;20204;-59
2022/11/15 02:55:39;;;;;;;3.17;1.80;;;11.20;99.90;;;;;;5075341;28;20215;-59
2022/11/15 02:58:26;;;;;;;5.57;1.63;;;11.10;99.90;;;;;;5075078;28;20235;-58
2022/11/15 03:01:00;;;;;;;3.77;1.80;;;11.00;99.90;;;;;;5075520;28;20216;-58
2022/11/15 03:03:47;;;;;;;3.47;1.80;;;10.90;99.90;;;;;;5075359;28;20233;-59
2022/11/15 03:06:23;;;;;;;3.87;1.60;;;11.00;99.90;;;;;;5075257;28;20209;-59
2022/11/15 03:09:03;;;;;;;2.70;1.80;;;11.20;99.90;;;;;;5075354;28;20638;-59
2022/11/15 03:11:34;;;;;;;2.97;1.70;;;11.20;99.90;;;;;;5075575;28;20551;-59
2022/11/15 03:14:09;;;;;;;3.10;1.67;;;11.30;99.90;;;;;;5075224;28;20201;-59
2022/11/15 03:16:40;;;;;;;2.70;1.70;;;11.30;99.90;;;;;;5074888;28;20305;-59
2022/11/15 03:19:14;;;;;;;4.90;2.00;;;11.40;99.90;;;;;;5075212;28;20615;-59
2022/11/15 03:21:42;;;;;;;4.10;2.00;;;11.40;99.90;;;;;;5074970;28;20709;-59
2022/11/15 03:24:10;;;;;;;4.00;1.53;;;11.40;99.90;;;;;;5074835;28;20209;-59
2022/11/15 03:26:41;;;;;;;4.50;2.00;;;11.50;99.90;;;;;;5074612;28;20232;-59
2022/11/15 03:29:14;;;;;;;3.60;1.73;;;11.40;99.90;;;;;;5074944;28;20256;-59
2022/11/15 03:31:48;;;;;;;3.13;1.90;;;11.40;99.90;;;;;;5074961;28;20201;-59
2022/11/15 03:34:24;;;;;;;6.37;2.30;;;11.40;99.90;;;;;;5074892;28;20223;-59
2022/11/15 03:36:51;;;;;;;3.13;2.10;;;11.30;99.90;;;;;;5074712;28;20233;-59
2022/11/15 03:39:20;;;;;;;4.23;2.27;;;11.30;99.90;;;;;;5074499;28;20241;-59
2022/11/15 03:41:52;;;;;;;3.33;2.60;;;11.20;99.90;;;;;;5074872;28;20250;-58
2022/11/15 03:44:32;;;;;;;5.27;2.30;;;11.10;99.90;;;;;;5074735;28;20239;-59
2022/11/15 03:47:04;;;;;;;6.03;2.37;;;11.00;99.90;;;;;;5074673;28;20204;-59
2022/11/15 03:49:35;;;;;;;3.23;2.00;;;10.90;99.90;;;;;;5074904;28;20680;-59
2022/11/15 03:52:03;;;;;;;3.27;2.00;;;10.90;99.90;;;;;;5074362;28;20733;-59
2022/11/15 03:54:31;;;;;;;3.27;1.90;;;10.90;99.90;;;;;;5074344;28;20563;-59
2022/11/15 03:56:58;;;;;;;4.57;1.83;;;10.80;99.90;;;;;;5073957;28;20288;-58
2022/11/15 03:59:25;;;;;;;2.43;1.70;;;10.70;99.90;;;;;;5073809;28;20511;-59
2022/11/15 04:01:52;;;;;;;3.60;1.73;;;10.70;99.90;;;;;;5073643;28;20209;-59
2022/11/15 04:04:19;;;;;;;1.83;1.60;;;10.70;99.90;;;;;;5074214;28;20258;-60
2022/11/15 04:06:47;;;;;;;2.93;1.73;;;10.70;99.90;;;;;;5074042;28;20204;-60
2022/11/15 04:09:14;;;;;;;1.80;1.47;;;10.60;99.90;;;;;;5073883;28;20724;-59
2022/11/15 04:11:41;;;;;;;2.43;1.70;;;10.60;99.90;;;;;;5073908;28;20205;-59
2022/11/15 04:14:08;;;;;;;3.87;1.70;;;10.70;99.90;;;;;;5073767;28;20205;-59
2022/11/15 04:16:34;;;;;;;4.57;2.07;;;10.70;99.90;;;;;;5073282;28;20205;-59
2022/11/15 04:24:31;;;;;;;3.30;1.77;;;10.60;99.90;;;;;;5073963;28;20254;-59
2022/11/15 04:26:58;;;;;;;8.27;2.23;;;10.60;99.90;;;;;;5073232;28;20229;-59
2022/11/15 04:29:37;;;;;;;5.00;1.93;;;10.50;99.90;;;;;;5073911;28;20221;-59
2022/11/15 04:32:05;;;;;;;3.37;2.43;;;10.40;99.90;;;;;;5073686;28;20266;-59
2022/11/15 04:34:32;;;;;;;5.40;2.00;;;10.40;99.90;;;;;;5073502;28;20225;-59
2022/11/15 04:37:12;;;;;;;4.23;1.70;;;10.40;99.90;;;;;;5073052;28;20211;-59
2022/11/15 04:39:39;;;;;;;5.03;3.53;;;10.40;99.90;;;;;;5072975;28;20232;-58
2022/11/15 04:42:07;;;;;;;3.40;2.30;;;10.40;99.90;;;;;;5073294;28;20227;-60
2022/11/15 04:44:34;;;;;;;6.70;3.20;;;10.30;99.90;;;;;;5073387;28;20209;-59
2022/11/15 04:47:01;;;;;;;5.57;2.20;;;10.30;99.90;;;;;;5072575;28;20277;-60
2022/11/15 04:49:27;;;;;;;6.07;2.57;;;10.20;99.90;;;;;;5073259;28;20270;-60
2022/11/15 04:51:54;;;;;;;5.10;3.00;;;10.20;99.90;;;;;;5073285;28;20205;-60
2022/11/15 04:54:23;;;;;;;9.43;6.00;;;10.20;99.90;;;;;;5073028;28;20578;-60
2022/11/15 04:56:50;;;;;;;13.53;6.00;;;10.10;99.90;;;;;;5072975;28;20237;-60
2022/11/15 04:59:17;;;;;;;9.10;5.80;;;10.10;99.90;;;;;;5072671;28;20225;-59
2022/11/15 05:01:44;;;;;;;6.43;3.47;;;10.00;99.90;;;;;;5073053;28;20209;-60
2022/11/15 05:04:18;;;;;;;4.10;2.87;;;9.90;99.90;;;;;;5073122;28;20209;-60
2022/11/15 05:06:45;;;;;;;2.80;2.10;;;9.80;99.90;;;;;;5072468;28;20204;-60
2022/11/15 05:09:16;;;;;;;3.07;2.27;;;9.70;99.90;;;;;;5073023;28;20224;-60
2022/11/15 05:11:44;;;;;;;6.07;2.37;;;9.60;99.90;;;;;;5072919;28;20201;-60
2022/11/15 05:14:11;;;;;;;3.20;2.40;;;9.50;99.90;;;;;;5073036;28;20240;-59
2022/11/15 05:16:38;;;;;;;5.03;2.23;;;9.50;99.90;;;;;;5072419;28;20216;-60
2022/11/15 05:19:05;;;;;;;2.90;2.20;;;9.40;99.90;;;;;;5072723;28;20668;-60
2022/11/15 05:21:32;;;;;;;2.63;2.10;;;9.40;99.90;;;;;;5073107;28;20580;-60
2022/11/15 05:24:00;;;;;;;6.23;2.30;;;9.30;99.90;;;;;;5073190;28;20746;-60
2022/11/15 05:26:27;;;;;;;2.53;2.00;;;9.20;99.90;;;;;;5073228;28;20288;-58
2022/11/15 05:28:57;;;;;;;3.03;1.93;;;9.10;99.90;;;;;;5073037;28;20227;-59
2022/11/15 05:31:24;;;;;;;2.80;2.00;;;9.00;99.90;;;;;;5073449;28;20217;-59
2022/11/15 05:33:52;;;;;;;3.73;1.93;;;9.10;99.90;;;;;;5073072;28;20224;-59
2022/11/15 05:36:25;;;;;;;3.57;2.17;;;9.20;99.90;;;;;;5073788;28;20211;-60
2022/11/15 05:38:52;;;;;;;2.23;1.80;;;9.30;99.90;;;;;;5072575;28;20228;-59
2022/11/15 05:41:21;;;;;;;6.87;2.30;;;9.40;99.90;;;;;;5073383;28;20205;-59
2022/11/15 05:43:51;;;;;;;3.80;2.10;;;9.40;99.90;;;;;;5072676;28;20691;-60
2022/11/15 05:46:19;;;;;;;3.67;1.90;;;9.30;99.90;;;;;;5072885;28;20299;-59
2022/11/15 05:48:50;;;;;;;5.17;1.90;;;9.10;99.90;;;;;;5072417;28;20221;-59
2022/11/15 05:51:20;;;;;;;2.13;1.80;;;9.20;99.90;;;;;;5072708;28;20208;-59
2022/11/15 05:53:48;;;;;;;3.00;2.00;;;9.30;99.90;;;;;;5072955;28;20212;-59
2022/11/15 05:56:15;;;;;;;2.50;1.90;;;9.30;99.90;;;;;;5072663;28;20205;-60
2022/11/15 05:58:43;;;;;;;4.63;2.53;;;9.20;99.90;;;;;;5071555;28;20221;-60
2022/11/15 06:01:10;;;;;;;3.87;2.50;;;9.30;99.90;;;;;;5072203;28;20219;-59
2022/11/15 06:03:38;;;;;;;2.83;2.20;;;9.40;99.90;;;;;;5072265;28;20209;-60
2022/11/15 06:06:06;;;;;;;6.07;2.30;;;9.50;99.90;;;;;;5072475;28;20216;-59
2022/11/15 06:08:32;;;;;;;6.43;2.10;;;9.60;99.90;;;;;;5071331;28;20715;-60
2022/11/15 06:11:05;;;;;;;3.47;2.30;;;9.60;99.90;;;;;;5072264;28;20660;-60
2022/11/15 06:13:32;;;;;;;3.73;2.20;;;9.70;99.90;;;;;;5072025;28;20227;-60
2022/11/15 06:15:59;;;;;;;3.97;2.10;;;9.60;99.90;;;;;;5072119;28;20209;-59
2022/11/15 06:18:26;;;;;;;5.23;2.13;;;9.60;99.90;;;;;;5071617;28;20236;-59
2022/11/15 06:20:54;;;;;;;2.90;1.90;;;9.50;99.90;;;;;;5072132;28;20237;-59
2022/11/15 06:23:21;;;;;;;2.70;1.93;;;9.50;99.90;;;;;;5072562;28;20219;-59
2022/11/15 06:25:48;;;;;;;2.90;2.10;;;9.30;99.90;;;;;;5075821;28;20300;-60
2022/11/15 06:28:14;;;;;;;2.33;1.90;;;9.40;99.90;;;;;;5075350;28;20234;-59
2022/11/15 06:30:41;;;;;;;5.53;2.60;;;9.50;99.90;;;;;;5075907;28;20229;-56
2022/11/15 06:33:09;;;;;;;3.37;2.40;;;9.40;99.90;;;;;;5075988;28;20231;-58
2022/11/15 06:35:36;;;;;;;4.07;1.77;;;9.30;99.90;;;;;;5075944;28;20224;-57
2022/11/15 06:38:06;;;;;;;4.30;2.00;;;9.30;99.90;;;;;;5075198;28;20204;-56
2022/11/15 06:40:35;;;;;;;3.33;1.83;;;9.30;99.90;;;;;;5075537;28;20232;-56
2022/11/15 06:43:04;;;;;;;4.07;2.17;;;9.30;99.90;;;;;;5075852;28;20232;-57
2022/11/15 06:45:31;;;;;;;5.60;2.50;;;9.40;99.90;;;;;;5075686;28;20209;-57
2022/11/15 06:47:58;;;;;;;4.87;2.20;;;9.40;99.90;;;;;;5075405;28;20211;-57
2022/11/15 06:50:25;;;;;;;4.23;2.00;;;9.40;99.90;;;;;;5075751;28;20217;-57
2022/11/15 06:52:52;;;;;;;3.27;2.03;;;9.60;99.90;;;;;;5075360;28;20672;-57
2022/11/15 06:55:21;;;;;;;5.00;2.10;;;9.60;99.90;;;;;;5075553;28;20882;-57
2022/11/15 06:57:49;;;;;;;5.27;2.10;;;9.60;99.90;;;;;;5075443;28;20212;-57
2022/11/15 07:00:17;;;;;;;4.47;2.20;;;9.60;99.90;;;;;;5075108;28;20228;-57
2022/11/15 07:02:43;;;;;;;3.20;2.10;;;9.50;99.90;;;;;;5075884;28;20209;-56
2022/11/15 07:05:10;;;;;;;2.90;2.30;;;9.60;99.90;;;;;;5075965;28;20392;-57
2022/11/15 07:07:37;;;;;;;3.80;2.43;;;9.60;99.90;;;;;;5075510;28;20201;-57
2022/11/15 07:10:06;;;;;;;6.23;2.90;;;9.60;99.90;;;;;;5075640;28;20231;-57
2022/11/15 07:12:35;;;;;;;3.73;2.30;;;9.60;99.90;;;;;;5075648;28;20211;-57
2022/11/15 07:15:01;;;;;;;5.90;2.17;;;9.60;99.90;;;;;;5075854;28;20262;-58
2022/11/15 07:17:28;;;;;;;3.50;2.30;;;9.60;99.90;;;;;;5074759;28;20664;-57
2022/11/15 07:19:55;;;;;;;3.40;2.63;;;9.60;99.90;;;;;;5075547;28;20228;-58
2022/11/15 07:22:22;;;;;;;3.83;2.30;;;9.60;99.90;;;;;;5075585;28;20209;-57
2022/11/15 07:24:49;;;;;;;3.27;2.17;;;9.60;99.90;;;;;;5074919;28;20205;-57
2022/11/15 07:27:16;;;;;;;3.77;2.30;;;9.70;99.90;;;;;;5075017;28;20295;-57
2022/11/15 07:29:44;;;;;;;5.30;2.20;;;9.80;99.90;;;;;;5075048;28;20221;-58
2022/11/15 07:32:11;;;;;;;3.70;2.20;;;9.80;99.90;;;;;;5075142;28;20625;-58
2022/11/15 07:34:38;;;;;;;3.50;2.20;;;9.90;99.90;;;;;;5075161;28;20211;-58
2022/11/15 07:37:05;;;;;;;6.13;3.37;;;10.10;99.90;;;;;;5075118;28;20299;-58
2022/11/15 07:39:31;;;;;;;6.67;3.40;;;10.30;99.90;;;;;;5075150;28;20240;-58
2022/11/15 07:44:40;;;;;;;6.70;3.83;;;10.60;99.90;;;;;;5074665;28;20284;-58
2022/11/15 07:47:08;;;;;;;4.40;3.43;;;10.60;99.90;;;;;;5074400;28;20205;-58
2022/11/15 07:49:35;;;;;;;10.83;4.57;;;10.70;99.90;;;;;;5074481;28;20248;-58
2022/11/15 07:52:02;;;;;;;6.07;4.17;;;10.70;99.90;;;;;;5074826;28;20201;-58
2022/11/15 07:54:29;;;;;;;7.57;3.60;;;10.70;99.90;;;;;;5074848;28;20201;-61
2022/11/15 07:56:56;;;;;;;7.70;4.87;;;10.90;99.90;;;;;;5074325;28;20208;-60
2022/11/15 07:59:24;;;;;;;7.70;3.20;;;11.00;99.90;;;;;;5049452;28;20266;-66
2022/11/15 08:01:50;;;;;;;9.80;3.20;;;11.00;99.90;;;;;;5061474;28;20197;-60
2022/11/15 08:04:19;;;;;;;5.53;3.40;;;11.10;99.90;;;;;;5073197;28;20204;-60
2022/11/15 08:06:45;;;;;;;5.73;3.07;;;11.20;99.90;;;;;;5073158;28;20200;-60
2022/11/15 08:09:12;;;;;;;4.90;3.23;;;11.30;99.90;;;;;;5072147;28;20696;-61
2022/11/15 08:11:39;;;;;;;6.27;2.90;;;11.40;99.90;;;;;;5073594;28;20201;-60
2022/11/15 08:14:06;;;;;;;6.70;3.40;;;11.60;99.90;;;;;;5073489;28;20205;-60
2022/11/15 08:16:33;;;;;;;3.80;2.93;;;11.80;99.90;;;;;;5073381;28;20213;-60
2022/11/15 08:19:00;;;;;;;10.47;3.47;;;11.90;99.90;;;;;;5071971;28;20232;-60
2022/11/15 08:21:28;;;;;;;5.60;3.40;;;12.10;99.90;;;;;;5073363;28;20231;-60
2022/11/15 08:23:55;;;;;;;6.00;3.37;;;12.30;99.90;;;;;;5073248;28;20212;-60
2022/11/15 08:26:24;;;;;;;6.50;3.80;;;12.60;99.90;;;;;;5073024;28;20241;-60
2022/11/15 08:28:51;;;;;;;5.50;4.23;;;12.80;99.90;;;;;;5071655;28;20738;-60
2022/11/15 08:31:19;;;;;;;7.93;4.07;;;13.10;99.90;;;;;;5073463;28;20223;-60
2022/11/15 08:33:46;;;;;;;7.13;4.53;;;13.30;99.90;;;;;;5072753;28;20205;-60
2022/11/15 08:36:15;;;;;;;7.23;4.63;;;13.50;99.90;;;;;;5073179;28;20209;-59
2022/11/15 08:38:43;;;;;;;8.00;5.30;;;13.80;99.90;;;;;;5071598;28;20212;-57
2022/11/15 08:41:14;;;;;;;9.47;5.13;;;14.10;99.90;;;;;;5073378;28;20253;-57
2022/11/15 08:43:41;;;;;;;6.57;4.60;;;14.30;99.90;;;;;;5074384;28;20235;-57
2022/11/15 08:46:12;;;;;;;5.87;3.13;;;14.50;99.90;;;;;;5074522;28;20201;-57
2022/11/15 08:48:39;;;;;;;5.07;3.23;;;14.70;99.90;;;;;;5074658;28;20209;-57
2022/11/15 08:51:06;;;;;;;3.87;2.30;;;14.80;99.90;;;;;;5073732;28;20640;-57
2022/11/15 08:53:33;;;;;;;3.93;2.40;;;14.90;99.90;;;;;;5073948;28;20201;-57
2022/11/15 08:56:01;;;;;;;3.97;2.17;;;15.00;99.90;;;;;;5074172;28;20700;-57
2022/11/15 08:58:28;;;;;;;3.43;2.30;;;15.10;99.90;;;;;;5074412;28;20228;-57
2022/11/15 09:00:55;;;;;;;2.70;2.23;;;15.20;99.90;;;;;;5072708;28;20248;-57
2022/11/15 09:03:22;;;;;;;4.77;2.13;;;15.20;99.90;;;;;;5074049;28;20208;-58
2022/11/15 09:05:49;;;;;;;5.40;2.83;;;15.20;99.90;;;;;;5074420;28;20700;-57
2022/11/15 09:08:16;;;;;;;5.13;2.77;;;15.10;99.90;;;;;;5072395;28;20268;-57
2022/11/15 09:10:43;;;;;;;6.37;3.40;;;15.10;99.90;;;;;;5073677;28;20308;-57
2022/11/15 09:13:12;;;;;;;4.73;2.50;;;15.00;99.90;;;;;;5074021;28;20205;-57
2022/11/15 09:15:39;;;;;;;5.37;3.03;;;14.80;99.90;;;;;;5073745;28;20770;-58
2022/11/15 09:18:05;;;;;;;5.47;2.50;;;14.70;99.90;;;;;;5073216;28;20554;-58
2022/11/15 09:20:33;;;;;;;5.33;2.60;;;14.50;99.90;;;;;;5072748;28;20236;-58
2022/11/15 09:23:01;;;;;;;4.50;2.50;;;14.50;99.90;;;;;;5073457;28;20217;-58
2022/11/15 09:25:29;;;;;;;3.10;2.20;;;14.50;99.90;;;;;;5073147;28;20205;-58
2022/11/15 09:27:56;;;;;;;3.47;2.50;;;14.60;99.90;;;;;;5071606;28;20307;-58
2022/11/15 09:30:25;;;;;;;5.07;2.67;;;14.60;99.90;;;;;;5071927;28;20605;-58
2022/11/15 09:32:52;;;;;;;3.67;2.17;;;14.70;99.90;;;;;;5072000;28;20227;-58
2022/11/15 09:35:19;;;;;;;3.60;1.90;;;14.90;99.90;;;;;;5072106;28;20697;-59
2022/11/15 09:37:45;;;;;;;4.00;2.30;;;15.20;99.90;;;;;;5071508;28;20212;-57
2022/11/15 09:40:16;;;;;;;4.20;2.40;;;15.50;99.90;;;;;;5071215;28;20315;-58
2022/11/15 09:43:13;;;;;;;4.43;2.20;;;15.70;99.90;;;;;;5072071;28;20292;-59
2022/11/15 09:45:52;;;;;;;3.47;2.40;;;15.80;99.90;;;;;;5071394;28;20208;-58
2022/11/15 09:48:44;;;;;;;4.55;2.20;;;16.00;99.90;;;;;;5071462;28;20257;-58
2022/11/15 09:51:19;;;;;;;3.22;2.10;;;16.20;99.90;;;;;;5071608;28;20201;-58
2022/11/15 09:53:51;;;;;;;2.80;2.00;;;16.40;99.90;;;;;;5071595;28;20287;-58
2022/11/15 09:56:21;;;;;;;2.95;2.00;;;16.60;99.90;;;;;;5071272;28;20232;-57
2022/11/15 09:58:57;;;;;;;2.25;1.75;;;16.80;99.90;;;;;;5069500;28;20655;-58
2022/11/15 10:01:42;;;;;;;3.70;2.00;;;17.00;99.90;;;;;;5071180;28;20227;-58
2022/11/15 10:04:09;;;;;;;2.50;1.80;;;17.30;99.90;;;;;;5071455;28;20640;-58
2022/11/15 10:06:39;;;;;;;4.18;2.08;;;17.40;99.90;;;;;;5071409;28;20228;-58
2022/11/15 10:09:13;;;;;;;4.45;1.92;;;17.50;99.90;;;;;;5069900;28;20730;-58
2022/11/15 10:11:41;;;;;;;2.47;1.90;;;17.60;99.90;;;;;;5071061;28;20226;-58
2022/11/15 10:14:13;;;;;;;1.70;1.60;;;17.60;99.90;;;;;;5071174;28;20262;-57
2022/11/15 10:17:14;;;;;;;2.80;1.83;;;17.50;99.90;;;;;;5071064;28;20240;-58
2022/11/15 10:19:53;;;;;;;2.85;1.70;;;17.60;99.90;;;;;;5060114;28;20685;-58
2022/11/15 10:22:27;;;;;;;2.15;1.60;;;17.60;99.90;;;;;;5070721;28;20664;-58
2022/11/15 10:25:07;;;;;;;2.30;1.73;;;17.70;99.90;;;;;;5071124;28;20213;-57
2022/11/15 10:27:34;;;;;;;2.08;1.73;;;17.90;99.90;;;;;;5070593;28;20570;-58
2022/11/15 10:30:01;;;;;;;6.00;2.00;;;18.00;99.90;;;;;;5070835;28;20601;-58
2022/11/15 10:32:34;;;;;;;3.17;2.00;;;18.20;99.90;;;;;;5070723;28;20204;-58
2022/11/15 10:35:16;;;;;;;2.83;1.80;;;18.30;99.90;;;;;;5070808;28;20209;-58
2022/11/15 10:37:43;;;;;;;2.95;1.83;;;18.60;99.90;;;;;;5070607;28;20205;-58
2022/11/15 10:40:17;;;;;;;4.18;2.03;;;18.80;99.90;;;;;;5070338;28;20228;-58
2022/11/15 10:42:44;;;;;;;4.80;2.00;;;18.90;99.90;;;;;;5070856;28;20215;-58
2022/11/15 10:45:26;;;;;;;2.88;2.10;;;19.00;99.90;;;;;;5070962;28;20232;-58
2022/11/15 10:47:54;;;;;;;3.17;2.10;;;19.10;99.90;;;;;;5070301;28;20213;-58
2022/11/15 10:50:32;;;;;;;3.38;2.13;;;19.20;99.90;;;;;;5070147;28;20598;-58
2022/11/15 10:53:01;;;;;;;7.40;2.58;;;19.30;99.90;;;;;;5070868;28;20200;-58
2022/11/15 10:55:30;;;;;;;5.32;2.78;;;19.30;99.90;;;;;;5070980;28;20217;-58
2022/11/15 10:58:03;;;;;;;5.60;2.20;;;19.30;99.90;;;;;;5069992;28;20220;-58
2022/11/15 11:00:39;;;;;;;6.15;2.35;;;19.40;99.90;;;;;;5070452;28;20240;-58
2022/11/15 11:03:29;;;;;;;2.85;2.20;;;19.40;99.90;;;;;;5071022;28;20224;-58
2022/11/15 11:06:06;;;;;;;3.63;2.30;;;19.40;99.90;;;;;;5070978;28;20209;-58
2022/11/15 11:08:33;;;;;;;5.38;4.38;;;19.30;99.90;;;;;;5069849;28;20581;-58
2022/11/15 11:11:02;;;;;;;4.97;2.40;;;19.30;99.90;;;;;;5072611;28;20205;-58
2022/11/15 11:13:31;;;;;;;3.88;2.47;;;19.00;99.90;;;;;;5073952;28;20756;-58
2022/11/15 11:16:09;;;;;;;3.53;2.30;;;18.90;99.90;;;;;;5073922;28;20665;-58
2022/11/15 11:18:48;;;;;;;5.28;2.90;;;18.90;99.90;;;;;;5073429;28;20532;-58
2022/11/15 11:21:19;;;;;;;2.97;2.30;;;19.00;99.90;;;;;;5073706;28;20227;-58
2022/11/15 11:23:52;;;;;;;11.73;6.47;;;19.10;99.90;;;;;;5073485;28;20299;-58
2022/11/15 11:26:39;;;;;;;4.97;3.17;;;19.00;99.90;;;;;;5074148;28;20212;-59
2022/11/15 11:29:20;;;;;;;4.68;2.33;;;18.80;99.90;;;;;;5072844;28;20223;-59
2022/11/15 11:31:56;;;;;;;4.93;2.67;;;18.70;99.90;;;;;;5074021;28;20620;-58
2022/11/15 11:34:37;;;;;;;3.55;2.30;;;18.70;99.90;;;;;;5073622;28;20185;-59
2022/11/15 11:37:12;;;;;;;7.13;3.38;;;18.70;99.90;;;;;;5073715;28;20239;-59
2022/11/15 11:39:50;;;;;;;5.15;3.03;;;18.60;99.90;;;;;;5073028;28;20237;-59
2022/11/15 11:42:31;;;;;;;8.85;3.03;;;18.40;99.90;;;;;;5073462;28;20723;-59
2022/11/15 11:45:06;;;;;;;5.50;2.90;;;18.20;99.90;;;;;;5073632;28;20208;-59
2022/11/15 11:47:37;;;;;;;5.25;2.60;;;18.20;99.90;;;;;;5072753;28;20258;-59
2022/11/15 11:50:14;;;;;;;6.40;2.75;;;18.50;99.90;;;;;;5073188;28;20597;-59
2022/11/15 11:52:45;;;;;;;5.95;2.53;;;18.70;99.90;;;;;;5073610;28;20703;-59
2022/11/15 11:55:17;;;;;;;3.75;2.55;;;18.80;99.90;;;;;;5073585;28;20488;-59
2022/11/15 11:57:50;;;;;;;5.32;3.00;;;18.80;99.90;;;;;;5073250;28;20587;-59
2022/11/15 12:00:20;;;;;;;6.45;3.00;;;18.70;99.90;;;;;;5073231;28;20221;-59
2022/11/15 12:02:54;;;;;;;4.50;2.60;;;18.50;99.90;;;;;;5073330;28;20236;-59
2022/11/15 12:05:28;;;;;;;4.28;3.03;;;18.50;99.90;;;;;;5073689;28;20204;-60
2022/11/15 12:07:59;;;;;;;5.10;2.78;;;18.60;99.90;;;;;;5073423;28;20216;-59
2022/11/15 12:10:31;;;;;;;5.90;2.70;;;18.70;99.90;;;;;;5072872;28;20313;-59
2022/11/15 12:13:04;;;;;;;4.35;2.60;;;18.80;99.90;;;;;;5073235;28;20680;-59
2022/11/15 12:15:37;;;;;;;10.65;2.95;;;18.90;99.90;;;;;;5073573;28;20205;-59
2022/11/15 12:18:05;;;;;;;3.00;2.03;;;18.90;99.90;;;;;;5073142;28;20240;-59
2022/11/15 12:20:37;;;;;;;5.18;2.10;;;18.90;99.90;;;;;;5072835;28;20239;-59
2022/11/15 12:23:13;;;;;;;4.60;1.73;;;18.90;99.90;;;;;;5073012;28;20716;-59
2022/11/15 12:25:46;;;;;;;3.33;2.00;;;19.00;99.90;;;;;;5073222;28;20208;-60
2022/11/15 12:28:18;;;;;;;6.85;2.22;;;19.20;99.90;;;;;;5073673;28;20236;-61
2022/11/15 12:30:50;;;;;;;4.60;2.03;;;19.30;99.90;;;;;;5073806;28;20231;-61
2022/11/15 12:33:38;;;;;;;4.00;2.65;;;19.50;99.90;;;;;;5074806;28;20205;-59
2022/11/15 12:36:10;;;;;;;3.75;1.92;;;19.60;99.90;;;;;;5074212;28;20247;-59
2022/11/15 12:38:58;;;;;;;3.83;2.17;;;19.70;99.90;;;;;;5073262;28;20219;-59
2022/11/15 12:41:26;;;;;;;4.28;2.78;;;19.60;99.90;;;;;;5074212;28;20229;-62
2022/11/15 12:43:53;;;;;;;2.97;1.65;;;19.50;99.90;;;;;;5074578;28;20209;-59
2022/11/15 12:46:25;;;;;;;1.70;1.17;;;19.40;99.90;;;;;;5074214;28;20291;-59
2022/11/15 12:48:55;;;;;;;1.50;1.17;;;19.40;99.90;;;;;;5073232;28;20609;-59
2022/11/15 12:52:05;;;;;;;3.60;1.42;;;19.30;99.90;;;;;;5073733;28;20235;-60
2022/11/15 12:54:57;;;;;;;2.75;1.38;;;19.30;99.90;;;;;;5073396;28;20208;-59
2022/11/15 12:57:30;;;;;;;2.55;1.20;;;19.30;99.90;;;;;;5073089;28;20251;-60
2022/11/15 13:00:01;;;;;;;3.05;1.35;;;19.30;99.90;;;;;;5073466;28;20316;-60
2022/11/15 13:02:30;;;;;;;5.22;1.70;;;19.40;99.90;;;;;;5073416;28;20205;-59
2022/11/15 13:05:51;;;;;;;7.32;1.30;;;19.30;99.90;;;;;;5073706;28;20567;-59
2022/11/15 13:08:39;;;;;;;1.90;1.23;;;19.20;99.90;;;;;;5072560;28;20672;-59
2022/11/15 13:11:46;;;;;;;4.35;1.40;;;19.20;99.90;;;;;;5073041;28;20208;-60
2022/11/15 13:14:51;;;;;;;2.20;1.17;;;19.10;99.90;;;;;;5073035;28;20211;-60
2022/11/15 13:17:34;;;;;;;2.72;1.40;;;19.10;99.90;;;;;;5072849;28;20212;-60